Flight Track Log - Related Links

Times and Time Zones

All times are in EDT time to prevent confusion due to time zone crossing. See the N830QS flight status page for this flight to view local times or setup timezone preferences in your user account.

Time Position Orientation Groundspeed Altitude Reporting Facility
EDT Latitude Longitude Course Direction KTS MPH feet Rate Location/Type
Fri 06:19:41 PM 43.2678 -114.2569 192° South 320 368 11,000  Level Salt Lake Center
Fri 06:20:00 PM 43.0540 -114.3410 187° South  Level FlightAware Approximate
Fri 06:20:43 PM 43.1900 -114.3308 215° Southwest 326 375 13,100  Level Salt Lake Center
Fri 06:21:00 PM 42.9580 -114.3684 188° South  Level FlightAware Approximate
Fri 06:21:44 PM 43.1142 -114.4064 216° Southwest 324 373 15,200  Level Salt Lake Center
Fri 06:22:00 PM 42.8604 -114.3884 189° South  Level FlightAware Approximate
Fri 06:22:46 PM 43.0428 -114.4772 216° Southwest 328 377 17,100  Level Salt Lake Center
Fri 06:23:00 PM 42.7631 -114.4101 189° South  Level FlightAware Approximate
Fri 06:23:48 PM 42.9664 -114.5561 217° Southwest 330 380 19,100  Level Salt Lake Center
Fri 06:24:00 PM 42.6664 -114.4368 192° South  Level FlightAware Approximate
Fri 06:24:50 PM 42.8953 -114.6267 216° Southwest 335 386 21,000  Level Salt Lake Center
Fri 06:25:00 PM 42.5701 -114.4657 192° South  Level FlightAware Approximate
Fri 06:25:52 PM 42.7992 -114.6742 200° South 331 381 23,300  Level Salt Lake Center
Fri 06:26:54 PM 42.7103 -114.7006 192° South 339 390 24,800 1,415 Climbing Salt Lake Center
Fri 06:27:55 PM 42.6197 -114.7281 193° South 348 400 26,200 1,561 Climbing Salt Lake Center
Fri 06:28:57 PM 42.5047 -114.7639 193° South 353 406 28,000 1,597 Climbing Salt Lake Center
Fri 06:29:59 PM 42.4086 -114.7931 193° South 354 407 29,500 1,452 Climbing Salt Lake Center
Fri 06:31:01 PM 42.3125 -114.8219 193° South 355 409 31,000 1,452 Climbing Salt Lake Center
Fri 06:32:03 PM 42.2167 -114.8506 192° South 354 407 32,500 1,548 Climbing Salt Lake Center
Fri 06:33:05 PM 42.1103 -114.8831 193° South 352 405 34,200 1,512 Climbing Salt Lake Center
Fri 06:34:06 PM 42.0203 -114.9097 192° South 348 400 35,600 1,220 Climbing Salt Lake Center
Fri 06:35:08 PM 41.9147 -114.9422 193° South 349 402 36,700 1,016 Climbing Salt Lake Center
Fri 06:36:10 PM 41.8225 -114.9689 192° South 352 405 37,700 919 Climbing Salt Lake Center
Fri 06:37:12 PM 41.7300 -114.9961 192° South 355 409 38,600 871 Climbing Salt Lake Center
Fri 06:38:14 PM 41.6269 -115.0369 196° South 346 398 39,500 683 Climbing Salt Lake Center
Fri 06:39:15 PM 41.5653 -115.1250 227° Southwest 340 391 40,000 244 Climbing Salt Lake Center
Fri 06:40:17 PM 41.5119 -115.2528 241° Southwest 351 404 40,000  Level Salt Lake Center
Fri 06:41:19 PM 41.4650 -115.3653 241° Southwest 361 415 40,000  Level Salt Lake Center
Fri 06:42:20 PM 41.4083 -115.4994 241° Southwest 370 426 40,000  Level Salt Lake Center
Fri 06:43:22 PM 41.3603 -115.6153 241° Southwest 372 428 40,000  Level Salt Lake Center
Fri 06:44:24 PM 41.3100 -115.7311 240° Southwest 376 433 40,000  Level Salt Lake Center
Fri 06:45:25 PM 41.2533 -115.8675 241° Southwest 377 434 40,000  Level Salt Lake Center
Fri 06:46:27 PM 41.2036 -115.9842 240° Southwest 378 435 40,000  Level Salt Lake Center
Fri 06:47:29 PM 41.1464 -116.1203 241° Southwest 379 436 40,000  Level Salt Lake Center
Fri 06:48:30 PM 41.0947 -116.2356 239° Southwest 380 437 40,000  Level Salt Lake Center
Fri 06:49:32 PM 41.0381 -116.3731 241° Southwest 382 440 40,000  Level Salt Lake Center
Fri 06:50:34 PM 40.9881 -116.4878 240° Southwest 379 436 40,000  Level Salt Lake Center
Fri 06:51:36 PM 40.9272 -116.6228 239° Southwest 383 441 40,000  Level Salt Lake Center
Fri 06:52:37 PM 40.8778 -116.7378 240° Southwest 379 436 40,000  Level Salt Lake Center
Fri 06:53:39 PM 40.8264 -116.8525 239° Southwest 380 437 40,000  Level Salt Lake Center
Fri 06:54:41 PM 40.7678 -116.9867 240° Southwest 380 437 40,000  Level Salt Lake Center
Fri 06:55:43 PM 40.7167 -117.1014 240° Southwest 381 438 40,000  Level Salt Lake Center
Fri 06:56:44 PM 40.6575 -117.2342 240° Southwest 379 436 40,000  Level Salt Lake Center
Fri 06:57:46 PM 40.6064 -117.3486 240° Southwest 379 436 40,000  Level Salt Lake Center
Fri 06:58:48 PM 40.5469 -117.4811 239° Southwest 379 436 40,000  Level Salt Lake Center
Fri 06:59:50 PM 40.4950 -117.5936 239° Southwest 378 435 40,000  Level Salt Lake Center
Fri 07:00:52 PM 40.4356 -117.7258 239° Southwest 378 435 40,000  Level Salt Lake Center
Fri 07:01:53 PM 40.3842 -117.8383 239° Southwest 376 433 40,000  Level Salt Lake Center
Fri 07:02:41 PM 40.3433 -117.9269 239° Southwest 378 435 40,000  Level Oakland Center
Fri 07:03:42 PM 40.2889 -118.0453 239° Southwest 379 436 40,000  Level Oakland Center
Fri 07:04:44 PM 40.2244 -118.1861 239° Southwest 378 435 40,000  Level Oakland Center
Fri 07:05:46 PM 40.1706 -118.3033 239° Southwest 378 435 40,000  Level Oakland Center
Fri 07:06:48 PM 40.1164 -118.4219 239° Southwest 380 437 40,000  Level Oakland Center
Fri 07:07:49 PM 40.0619 -118.5411 239° Southwest 384 442 40,000 98 Level Oakland Center
Fri 07:08:51 PM 40.0069 -118.6575 238° Southwest 380 437 40,200 339 Climbing Oakland Center
Fri 07:09:53 PM 39.9528 -118.7717 238° Southwest 375 432 40,700 390 Climbing Oakland Center
Fri 07:10:54 PM 39.8906 -118.9061 239° Southwest 367 422 41,000 146 Climbing Oakland Center
Fri 07:11:56 PM 39.8283 -119.0117 233° Southwest 375 432 41,000  Level Oakland Center
Fri 07:12:58 PM 39.7333 -119.0625 202° Southwest 382 440 41,000  Level Oakland Center
Fri 07:14:00 PM 39.6281 -119.0781 186° South 382 440 41,000  Level Oakland Center
Fri 07:15:01 PM 39.5242 -119.0947 187° South 380 437 41,000  Level Oakland Center
Fri 07:16:03 PM 39.4189 -119.1103 187° South 383 441 41,000  Level Oakland Center
Fri 07:17:05 PM 39.2939 -119.1300 187° South 381 438 41,000  Level Oakland Center
Fri 07:18:06 PM 39.1892 -119.1453 186° South 382 440 41,000  Level Oakland Center
Fri 07:19:08 PM 39.0825 -119.1619 187° South 385 443 41,000  Level Oakland Center
Fri 07:20:10 PM 38.9756 -119.1781 187° South 387 445 41,000  Level Oakland Center
Fri 07:21:12 PM 38.8689 -119.1936 186° South 387 445 41,000  Level Oakland Center
Fri 07:22:13 PM 38.7639 -119.2100 187° South 384 442 41,000  Level Oakland Center
Fri 07:23:15 PM 38.6356 -119.2286 186° South 386 444 41,000  Level Oakland Center
Fri 07:24:17 PM 38.5275 -119.2450 187° South 391 450 41,000  Level Oakland Center
Fri 07:25:18 PM 38.4197 -119.2614 187° South 390 449 41,000  Level Oakland Center
Fri 07:26:20 PM 38.3114 -119.2769 186° South 391 450 41,000  Level Oakland Center
Fri 07:27:22 PM 38.2033 -119.2928 187° South 390 449 41,000  Level Oakland Center
Fri 07:28:24 PM 38.0817 -119.3114 187° South 388 447 41,000 -98 Level Oakland Center
Fri 07:29:25 PM 37.9731 -119.3269 186° South 391 450 40,800 -634 Descending Oakland Center
Fri 07:30:27 PM 37.8669 -119.3428 187° South 385 443 39,700 -871 Descending Oakland Center
Fri 07:31:29 PM 37.7589 -119.3583 186° South 388 447 39,000 -341 Descending Oakland Center
Fri 07:32:30 PM 37.6567 -119.3742 187° South 376 433 39,000  Level Oakland Center
Fri 07:33:32 PM 37.5417 -119.3922 187° South 373 429 39,000  Level Oakland Center
Fri 07:34:34 PM 37.4358 -119.4069 186° South 380 437 39,000  Level Oakland Center
Fri 07:35:36 PM 37.3267 -119.4242 187° South 392 451 39,000  Level Oakland Center
Fri 07:36:37 PM 37.2186 -119.4392 186° South 391 450 39,000  Level Oakland Center
Fri 07:37:39 PM 37.1111 -119.4553 187° South 390 449 39,000  Level Oakland Center
Fri 07:38:41 PM 37.0028 -119.4711 187° South 390 449 39,000  Level Oakland Center
Fri 07:39:43 PM 36.8958 -119.4861 186° South 388 447 39,000  Level Oakland Center
Fri 07:40:44 PM 36.7653 -119.5039 186° South 393 452 39,000  Level Oakland Center
Fri 07:41:46 PM 36.6569 -119.5200 187° South 391 450 39,000  Level Oakland Center
Fri 07:42:47 PM 36.5489 -119.5353 186° South 391 450 39,000  Level Oakland Center
Fri 07:43:49 PM 36.4406 -119.5500 186° South 391 450 39,000  Level Oakland Center
Fri 07:44:51 PM 36.3328 -119.5644 186° South 391 450 39,000  Level Oakland Center
Fri 07:45:52 PM 36.2239 -119.5811 187° South 391 450 39,000  Level Oakland Center
Fri 07:46:54 PM 36.1167 -119.5953 186° South 389 448 39,000  Level Oakland Center
Fri 07:47:56 PM 35.9867 -119.6136 187° South 390 449 39,000  Level Oakland Center
Fri 07:48:57 PM 35.8772 -119.6181 182° South 391 450 39,000 -683 Level Oakland Center
Fri 07:49:59 PM 35.7697 -119.6214 181° South 387 445 37,600 -1,645 Descending Oakland Center
Fri 07:51:01 PM 35.6642 -119.6275 183° South 379 436 35,600 -1,951 Descending Oakland Center
Fri 07:52:02 PM 35.5542 -119.6306 181° South 390 449 33,600 -1,920 Descending Oakland Center
Fri 07:53:06 PM 35.4428 -119.6228 177° South 401 461 31,600 -1,905 Descending Los Angeles Center
Fri 07:54:08 PM 35.3333 -119.5900 166° South 402 463 29,600 -2,177 Descending Los Angeles Center
Fri 07:55:10 PM 35.2039 -119.5281 159° South 420 483 27,100 -2,177 Descending Los Angeles Center
Fri 07:56:12 PM 35.1058 -119.4550 149° Southeast 412 474 25,100 -2,032 Descending Los Angeles Center
Fri 07:57:14 PM 35.0106 -119.3833 148° Southeast 405 466 22,900 -2,112 Descending Los Angeles Center
Fri 07:58:17 PM 34.9156 -119.3119 148° Southeast 402 463 20,700 -1,887 Descending Los Angeles Center
Fri 07:59:18 PM 34.8439 -119.2564 148° Southeast 389 448 19,000 -1,984 Descending Los Angeles Center
Fri 08:00:21 PM 34.7394 -119.1792 149° Southeast 368 423 16,600 -2,256 Descending Los Angeles Center
Fri 08:01:23 PM 34.6397 -119.1050 149° Southeast 365 420 14,300 -2,032 Descending Los Angeles Center
Fri 08:02:25 PM 34.5578 -119.0433 148° Southeast 346 398 12,400 -1,597 Descending Los Angeles Center
Fri 08:03:27 PM 34.4797 -118.9853 148° Southeast 328 377 11,000 -968 Descending Los Angeles Center
Fri 08:04:29 PM 34.4128 -118.9261 144° Southeast 301 346 10,400 -1,016 Descending Los Angeles Center
Fri 08:05:31 PM 34.3511 -118.8622 139° Southeast 295 339 8,900 -1,161 Descending Los Angeles Center
Fri 08:06:33 PM 34.3131 -118.7553 113° Southeast 283 326 8,000 -768 Descending Los Angeles Center
Fri 08:07:36 PM 34.2828 -118.6633 112° Southeast 292 336 7,300 -480 Descending Los Angeles Center
Fri 08:08:38 PM 34.2522 -118.5731 112° Southeast 290 334 7,000 -145 Descending Los Angeles Center
Fri 08:09:40 PM 34.2278 -118.5036 113° Southeast 227 261 7,000  Level Los Angeles Center
Fri 08:10:42 PM 34.2097 -118.4392 109° East 204 235 7,000  Level Los Angeles Center
Fri 08:11:44 PM 34.2417 -118.3842 55° Northeast 198 228 7,000 -484 Level Los Angeles Center
Fri 08:12:46 PM 34.2108 -118.3144 118° Southeast 200 230 6,000 -484 Descending Los Angeles Center
Fri 08:13:48 PM 34.1775 -118.2856 144° Southeast 175 201 6,000 -581 Level Los Angeles Center
Fri 08:14:50 PM 34.1267 -118.3025 195° South 186 214 4,800 -1,632 Descending Los Angeles Center
Fri 08:15:53 PM 34.0917 -118.3536 230° Southwest 205 236 2,600 -1,392 Descending Los Angeles Center
Fri 08:16:55 PM 34.0606 -118.3931 226° Southwest 181 208 1,900 -912 Descending Los Angeles Center
Fri 08:17:58 PM 34.0336 -118.4303 229° Southwest 146 168 700 -871 Descending Los Angeles Center
Fri 08:18:59 PM 34.0175 -118.4511 227° Southwest 127 146 100 -590 Descending Los Angeles Center

Login

Don't have an account? Register now (free) for customized features, flight alerts, and more!